Time;durP1;ratioP1;P1;durP2;ratioP2;P2;SDS_P1;SDS_P2;PMS_P1;PMS_P2;Temp;Humidity;BMP_temperature;BMP_pressure;BME280_temperature;BME280_humidity;BME280_pressure;Samples;Min_cycle;Max_cycle;Signal;HPM_P1;HPM_P2
2022/04/13 00:00:41;;;;;;;6.65;3.45;;;2.60;99.90;;;;;;4973277;28;20050;-62
2022/04/13 00:03:08;;;;;;;7.68;3.75;;;2.60;99.90;;;;;;4981019;28;20125;-63
2022/04/13 00:05:35;;;;;;;9.32;4.40;;;2.50;99.90;;;;;;4983368;28;20042;-63
2022/04/13 00:08:06;;;;;;;8.68;4.63;;;2.50;99.90;;;;;;4982199;28;20126;-65
2022/04/13 00:10:36;;;;;;;8.07;3.63;;;2.50;99.90;;;;;;4984077;28;20412;-63
2022/04/13 00:13:03;;;;;;;5.18;3.22;;;2.40;99.90;;;;;;4971498;28;20113;-63
2022/04/13 00:15:31;;;;;;;4.63;3.20;;;2.40;99.90;;;;;;4984169;28;20109;-65
2022/04/13 00:17:58;;;;;;;5.93;3.00;;;2.40;99.90;;;;;;4981185;28;20444;-66
2022/04/13 00:20:25;;;;;;;7.65;3.92;;;2.30;99.90;;;;;;4979204;28;20457;-62
2022/04/13 00:22:52;;;;;;;5.30;3.00;;;2.30;99.90;;;;;;4969503;28;20057;-63
2022/04/13 00:25:19;;;;;;;6.30;3.60;;;2.20;99.90;;;;;;4967635;28;20061;-63
2022/04/13 00:27:46;;;;;;;5.25;3.65;;;2.20;99.90;;;;;;4975597;28;20055;-62
2022/04/13 00:30:13;;;;;;;5.80;4.40;;;2.20;99.90;;;;;;4982262;28;20093;-63
2022/04/13 00:32:40;;;;;;;6.22;3.22;;;2.10;99.90;;;;;;4976433;28;20050;-63
2022/04/13 00:35:07;;;;;;;5.13;3.33;;;2.00;99.90;;;;;;4974580;28;20583;-63
2022/04/13 00:37:37;;;;;;;7.63;4.40;;;2.10;99.90;;;;;;4983280;28;20240;-65
2022/04/13 00:40:07;;;;;;;;;;;2.00;99.90;;;;;;4972175;28;20114;-63
2022/04/13 00:42:34;;;;;;;8.40;3.83;;;2.00;99.90;;;;;;4980200;28;19922;-62
2022/04/13 00:45:02;;;;;;;9.27;3.88;;;2.00;99.90;;;;;;4978492;28;20576;-64
2022/04/13 00:47:29;;;;;;;6.20;4.15;;;2.10;99.90;;;;;;4982412;28;20046;-63
2022/04/13 00:49:56;;;;;;;7.90;3.67;;;2.10;99.90;;;;;;4974730;28;20142;-62
2022/04/13 00:52:27;;;;;;;4.03;3.17;;;2.10;99.90;;;;;;4975113;28;20717;-62
2022/04/13 00:54:55;;;;;;;7.45;4.28;;;2.10;99.90;;;;;;4984950;28;20046;-62
2022/04/13 00:57:24;;;;;;;8.05;4.03;;;2.00;99.90;;;;;;4976441;28;20054;-62
2022/04/13 00:59:53;;;;;;;8.13;3.60;;;2.00;99.90;;;;;;4971239;28;21366;-64
2022/04/13 01:02:23;;;;;;;7.53;3.60;;;2.00;99.90;;;;;;4980732;28;20455;-65
2022/04/13 01:04:51;;;;;;;2.70;2.50;;;1.90;99.90;;;;;;4971543;28;20077;-63
2022/04/13 01:07:18;;;;;;;7.57;4.68;;;1.90;99.90;;;;;;4969413;28;20043;-63
2022/04/13 01:09:46;;;;;;;9.05;3.10;;;1.90;99.90;;;;;;4973009;28;20124;-67
2022/04/13 01:12:13;;;;;;;3.92;3.15;;;1.90;99.90;;;;;;4975748;28;20074;-63
2022/04/13 01:14:40;;;;;;;8.13;3.85;;;1.80;99.90;;;;;;4969514;28;20392;-63
2022/04/13 01:17:07;;;;;;;7.22;4.35;;;1.80;99.90;;;;;;4986047;28;20039;-68
2022/04/13 01:19:34;;;;;;;6.78;5.03;;;1.70;99.90;;;;;;4975120;28;20042;-65
2022/04/13 01:22:17;;;;;;;9.75;5.07;;;1.70;99.90;;;;;;4975394;28;20042;-62
2022/04/13 01:24:45;;;;;;;7.40;6.57;;;1.60;99.90;;;;;;4981527;28;20725;-62
2022/04/13 01:27:14;;;;;;;16.60;6.97;;;1.60;99.90;;;;;;4983641;28;20166;-63
2022/04/13 01:29:42;;;;;;;11.80;6.10;;;1.50;99.90;;;;;;4974073;28;20082;-64
2022/04/13 01:32:12;;;;;;;12.20;6.78;;;1.50;99.90;;;;;;4983351;28;20132;-62
2022/04/13 01:34:50;;;;;;;6.60;5.47;;;1.50;99.90;;;;;;4970808;28;20498;-63
2022/04/13 01:37:18;;;;;;;9.10;5.22;;;1.40;99.90;;;;;;4966754;28;20788;-63
2022/04/13 01:39:45;;;;;;;8.35;4.43;;;1.40;99.90;;;;;;4971639;28;20507;-62
2022/04/13 01:42:12;;;;;;;5.20;4.30;;;1.40;99.90;;;;;;4971534;28;20120;-63
2022/04/13 01:44:41;;;;;;;8.98;3.75;;;1.30;99.90;;;;;;4982460;28;20053;-62
2022/04/13 01:47:08;;;;;;;4.88;3.97;;;1.30;99.90;;;;;;4985779;28;20118;-62
2022/04/13 01:49:36;;;;;;;4.78;3.90;;;1.30;99.90;;;;;;4983869;28;20136;-63
2022/04/13 01:52:05;;;;;;;6.18;3.78;;;1.30;99.90;;;;;;4984147;28;20185;-63
2022/04/13 01:54:32;;;;;;;7.60;4.30;;;1.30;99.90;;;;;;4982266;28;20133;-63
2022/04/13 01:56:59;;;;;;;6.72;3.80;;;1.20;99.90;;;;;;4977764;28;20053;-64
2022/04/13 01:59:26;;;;;;;7.95;4.35;;;1.20;99.90;;;;;;4981087;28;20046;-63
2022/04/13 02:01:53;;;;;;;10.10;3.90;;;1.20;99.90;;;;;;4983362;28;20141;-63
2022/04/13 02:04:23;;;;;;;5.00;3.60;;;1.10;99.90;;;;;;4982541;28;20972;-65
2022/04/13 02:06:50;;;;;;;9.07;4.05;;;1.10;99.90;;;;;;4983943;28;20859;-62
2022/04/13 02:09:18;;;;;;;8.38;4.30;;;1.10;99.90;;;;;;4984194;28;20070;-62
2022/04/13 02:11:46;;;;;;;5.00;3.00;;;1.00;99.90;;;;;;4973171;28;20066;-65
2022/04/13 02:14:13;;;;;;;7.38;3.75;;;1.10;99.90;;;;;;4977131;28;20432;-63
2022/04/13 02:16:40;;;;;;;4.30;3.17;;;1.00;99.90;;;;;;4978452;28;20046;-63
2022/04/13 02:19:07;;;;;;;8.75;4.15;;;1.00;99.90;;;;;;4979561;28;20047;-64
2022/04/13 02:21:34;;;;;;;4.03;2.90;;;1.00;99.90;;;;;;4968271;28;20658;-62
2022/04/13 02:24:01;;;;;;;5.18;3.30;;;1.00;99.90;;;;;;4980236;28;20054;-63
2022/04/13 02:26:29;;;;;;;9.02;4.22;;;0.90;99.90;;;;;;4974649;28;20145;-64
2022/04/13 02:28:57;;;;;;;12.30;4.10;;;0.90;99.90;;;;;;4974735;28;20109;-63
2022/04/13 02:31:23;;;;;;;5.55;3.08;;;0.80;99.90;;;;;;4973935;28;20150;-62
2022/04/13 02:33:55;;;;;;;9.30;5.20;;;0.80;99.90;;;;;;4982712;28;20614;-63
2022/04/13 02:36:22;;;;;;;5.72;3.80;;;0.80;99.90;;;;;;4985385;28;20139;-62
2022/04/13 02:38:49;;;;;;;5.97;3.88;;;0.70;99.90;;;;;;4976124;28;20082;-63
2022/04/13 02:41:16;;;;;;;4.53;3.30;;;0.70;99.90;;;;;;4964430;28;20533;-62
2022/04/13 02:43:43;;;;;;;8.63;3.70;;;0.70;99.90;;;;;;4979207;28;20084;-63
2022/04/13 02:46:10;;;;;;;5.57;3.45;;;0.70;99.90;;;;;;4984607;28;20078;-63
2022/04/13 02:48:37;;;;;;;4.57;3.47;;;0.60;99.90;;;;;;4968037;28;20050;-63
2022/04/13 02:51:04;;;;;;;8.15;3.50;;;0.60;99.90;;;;;;4984759;28;20074;-63
2022/04/13 02:53:31;;;;;;;8.52;4.07;;;0.50;99.90;;;;;;4977133;28;20070;-62
2022/04/13 02:55:59;;;;;;;7.43;3.53;;;0.50;99.90;;;;;;4977030;28;20077;-63
2022/04/13 02:58:26;;;;;;;10.55;4.20;;;0.50;99.90;;;;;;4976965;28;20129;-62
2022/04/13 03:00:54;;;;;;;8.35;4.45;;;0.50;99.90;;;;;;4979805;28;20073;-62
2022/04/13 03:03:21;;;;;;;8.98;4.43;;;0.50;99.90;;;;;;4976560;28;20128;-66
2022/04/13 03:05:48;;;;;;;9.82;4.43;;;0.40;99.90;;;;;;4982061;28;20054;-63
2022/04/13 03:08:15;;;;;;;9.73;5.00;;;0.40;99.90;;;;;;4979595;28;20048;-64
2022/04/13 03:10:43;;;;;;;8.23;4.90;;;0.30;99.90;;;;;;4962307;28;20763;-65
2022/04/13 03:13:10;;;;;;;7.13;5.20;;;0.30;99.90;;;;;;4977588;28;20067;-62
2022/04/13 03:15:37;;;;;;;5.40;4.68;;;0.30;99.90;;;;;;4972363;28;20134;-65
2022/04/13 03:18:05;;;;;;;5.47;4.70;;;0.30;99.90;;;;;;4977422;28;20545;-62
2022/04/13 03:20:34;;;;;;;10.50;5.47;;;0.30;99.90;;;;;;4982072;28;20050;-62
2022/04/13 03:23:02;;;;;;;9.48;4.55;;;0.30;99.90;;;;;;4969987;28;20047;-62
2022/04/13 03:25:29;;;;;;;9.10;4.15;;;0.30;99.90;;;;;;4976896;28;20057;-63
2022/04/13 03:27:56;;;;;;;3.95;3.60;;;0.30;99.90;;;;;;4971295;28;20445;-63
2022/04/13 03:30:23;;;;;;;13.82;5.88;;;0.30;99.90;;;;;;4974177;28;20783;-63
2022/04/13 03:32:53;;;;;;;6.63;4.28;;;0.30;99.90;;;;;;4979535;28;20046;-62
2022/04/13 03:35:22;;;;;;;9.18;5.13;;;0.30;99.90;;;;;;4975121;28;20070;-63
2022/04/13 03:37:49;;;;;;;11.80;5.30;;;0.30;99.90;;;;;;4977356;28;20069;-64
2022/04/13 03:40:16;;;;;;;10.90;7.38;;;0.20;99.90;;;;;;4973917;28;20070;-63
2022/04/13 03:42:43;;;;;;;14.60;4.90;;;0.20;99.90;;;;;;4978195;28;20046;-63
2022/04/13 03:45:12;;;;;;;13.20;4.78;;;0.20;99.90;;;;;;4983748;28;20112;-63
2022/04/13 03:47:40;;;;;;;9.15;5.30;;;0.20;99.90;;;;;;4975122;28;20055;-63
2022/04/13 03:50:08;;;;;;;6.70;5.03;;;0.20;99.90;;;;;;4974888;28;20141;-64
2022/04/13 03:52:36;;;;;;;21.58;7.18;;;0.20;99.90;;;;;;4972270;28;20034;-63
2022/04/13 03:55:05;;;;;;;13.77;5.93;;;0.30;99.90;;;;;;4969732;28;20109;-63
2022/04/13 03:57:32;;;;;;;13.93;6.85;;;0.30;99.90;;;;;;4972205;28;20461;-62
2022/04/13 03:59:59;;;;;;;15.00;6.72;;;0.40;99.90;;;;;;4976499;28;20062;-65
2022/04/13 04:02:26;;;;;;;18.27;6.53;;;0.50;99.90;;;;;;4976549;28;20097;-63
2022/04/13 04:04:53;;;;;;;13.32;7.50;;;0.60;99.90;;;;;;4977519;28;20046;-63
2022/04/13 04:07:20;;;;;;;8.95;6.75;;;0.60;99.90;;;;;;4981946;28;20046;-64
2022/04/13 04:09:47;;;;;;;17.85;6.97;;;0.70;99.90;;;;;;4979029;28;20149;-63
2022/04/13 04:12:14;;;;;;;11.93;6.35;;;0.80;99.90;;;;;;4973020;28;20124;-62
2022/04/13 04:14:41;;;;;;;16.23;8.25;;;0.90;99.90;;;;;;4978908;28;20059;-64
2022/04/13 04:17:08;;;;;;;11.05;7.80;;;1.00;99.90;;;;;;4976634;28;20648;-63
2022/04/13 04:19:35;;;;;;;18.40;8.80;;;1.00;99.90;;;;;;4974621;28;20450;-62
2022/04/13 04:22:02;;;;;;;13.95;8.10;;;1.10;99.90;;;;;;4977453;28;20130;-63
2022/04/13 04:24:29;;;;;;;14.38;7.88;;;1.10;99.90;;;;;;4988009;28;20150;-62
2022/04/13 04:26:57;;;;;;;14.43;8.20;;;1.20;99.90;;;;;;4976066;28;20058;-63
2022/04/13 04:29:25;;;;;;;10.02;6.72;;;1.20;99.90;;;;;;4981639;28;20054;-63
2022/04/13 04:31:55;;;;;;;15.15;7.07;;;1.30;99.90;;;;;;4986788;28;20042;-62
2022/04/13 04:34:24;;;;;;;9.45;6.70;;;1.30;99.90;;;;;;4977211;28;20693;-63
2022/04/13 04:36:51;;;;;;;27.20;10.27;;;1.40;99.90;;;;;;4983181;28;20053;-65
2022/04/13 04:39:18;;;;;;;22.42;8.98;;;1.40;99.90;;;;;;4986923;28;20046;-64
2022/04/13 04:41:45;;;;;;;33.65;12.45;;;1.50;99.90;;;;;;4982937;28;20047;-63
2022/04/13 04:44:11;;;;;;;33.90;10.40;;;1.60;99.90;;;;;;4985837;28;20133;-63
2022/04/13 04:46:38;;;;;;;24.40;11.13;;;1.70;99.90;;;;;;4973931;28;20409;-62
2022/04/13 04:49:06;;;;;;;24.38;10.13;;;1.80;99.90;;;;;;4985891;28;20472;-62
2022/04/13 04:51:33;;;;;;;16.38;7.82;;;1.80;99.90;;;;;;4986362;28;20046;-68
2022/04/13 04:54:01;;;;;;;32.03;9.77;;;1.90;99.90;;;;;;4987644;28;20525;-62
2022/04/13 04:56:28;;;;;;;19.42;8.02;;;2.00;99.90;;;;;;4986117;28;20150;-63
2022/04/13 04:58:55;;;;;;;17.65;9.35;;;2.00;99.90;;;;;;4998129;28;20130;-63
2022/04/13 05:01:26;;;;;;;10.82;7.65;;;2.10;99.90;;;;;;4989658;28;20479;-62
2022/04/13 05:03:53;;;;;;;11.45;6.50;;;2.20;99.90;;;;;;4981920;28;20046;-65
2022/04/13 05:06:22;;;;;;;13.52;7.50;;;2.20;99.90;;;;;;4975186;28;20058;-62
2022/04/13 05:08:50;;;;;;;17.67;7.05;;;2.30;99.90;;;;;;4968999;28;20056;-62
2022/04/13 05:11:17;;;;;;;12.18;6.35;;;2.30;99.90;;;;;;4978170;28;20066;-62
2022/04/13 05:13:45;;;;;;;15.93;7.22;;;2.40;99.90;;;;;;4976029;28;20050;-63
2022/04/13 05:16:14;;;;;;;12.57;7.45;;;2.50;99.90;;;;;;4979841;28;20513;-62
2022/04/13 05:18:42;;;;;;;19.73;7.65;;;2.50;99.90;;;;;;4966308;28;20051;-62
2022/04/13 05:21:09;;;;;;;13.73;7.45;;;2.50;99.90;;;;;;4974444;28;20134;-62
2022/04/13 05:23:37;;;;;;;24.13;7.10;;;2.60;99.90;;;;;;4986495;28;20080;-62
2022/04/13 05:26:04;;;;;;;11.25;6.45;;;2.60;99.90;;;;;;4977139;28;20433;-62
2022/04/13 05:28:31;;;;;;;11.25;6.15;;;2.70;99.90;;;;;;4972761;28;20126;-62
2022/04/13 05:30:58;;;;;;;22.35;7.43;;;2.70;99.90;;;;;;4977795;28;20046;-64
2022/04/13 05:33:26;;;;;;;16.35;7.25;;;2.70;99.90;;;;;;4975567;28;20127;-62
2022/04/13 05:35:52;;;;;;;12.30;6.22;;;2.80;99.90;;;;;;4981154;28;20039;-63
2022/04/13 05:38:19;;;;;;;18.90;7.03;;;2.80;99.90;;;;;;4981474;28;20133;-62
2022/04/13 05:40:46;;;;;;;21.00;6.20;;;2.90;99.90;;;;;;4986014;28;20081;-63
2022/04/13 05:43:13;;;;;;;22.80;5.88;;;2.90;99.90;;;;;;4986302;28;20138;-62
2022/04/13 05:45:40;;;;;;;16.33;6.63;;;3.00;99.90;;;;;;4986231;28;20066;-63
2022/04/13 05:48:07;;;;;;;16.73;6.35;;;3.10;99.90;;;;;;4980228;28;20608;-63
2022/04/13 05:50:34;;;;;;;23.50;7.25;;;3.10;99.90;;;;;;4985652;28;20046;-62
2022/04/13 05:53:01;;;;;;;13.00;8.10;;;3.20;99.90;;;;;;4979619;28;20038;-63
2022/04/13 05:55:29;;;;;;;19.92;8.20;;;3.30;99.90;;;;;;4976090;28;20046;-63
2022/04/13 05:57:57;;;;;;;14.85;5.68;;;3.40;99.90;;;;;;4976901;28;20046;-63
2022/04/13 06:00:24;;;;;;;21.30;7.95;;;3.40;99.90;;;;;;4978515;28;20054;-62
2022/04/13 06:02:52;;;;;;;24.05;12.80;;;3.40;99.90;;;;;;4969969;28;20517;-63
2022/04/13 06:05:21;;;;;;;18.30;10.57;;;3.50;99.90;;;;;;4979954;28;20373;-63
2022/04/13 06:07:48;;;;;;;12.70;6.18;;;3.60;99.90;;;;;;4980605;28;20129;-69
2022/04/13 06:10:17;;;;;;;19.23;8.45;;;3.70;99.90;;;;;;4970360;28;20448;-63
2022/04/13 06:12:43;;;;;;;14.90;7.85;;;3.70;99.90;;;;;;4965861;28;20110;-65
2022/04/13 06:15:12;;;;;;;15.65;6.72;;;3.80;99.90;;;;;;4973666;28;20141;-63
2022/04/13 06:17:39;;;;;;;20.92;7.25;;;3.90;99.90;;;;;;4970853;28;20161;-64
2022/04/13 06:20:08;;;;;;;21.90;7.43;;;3.90;99.90;;;;;;4975430;28;20129;-62
2022/04/13 06:22:39;;;;;;;17.77;5.82;;;3.90;99.90;;;;;;4985253;28;20097;-63
2022/04/13 06:25:07;;;;;;;8.38;4.35;;;4.00;99.90;;;;;;4974663;28;20089;-65
2022/04/13 06:27:34;;;;;;;7.43;5.45;;;4.10;99.90;;;;;;4972091;28;20049;-63
2022/04/13 06:30:02;;;;;;;10.20;4.90;;;4.10;99.90;;;;;;4983362;28;20053;-63
2022/04/13 06:32:37;;;;;;;10.82;4.43;;;4.10;99.90;;;;;;4983007;28;20050;-63
2022/04/13 06:35:06;;;;;;;15.35;4.80;;;4.20;99.90;;;;;;4981949;28;20405;-63
2022/04/13 06:37:38;;;;;;;7.63;3.70;;;4.30;99.90;;;;;;4969407;28;20354;-63
2022/04/13 06:40:06;;;;;;;7.88;3.25;;;4.30;99.90;;;;;;4977825;28;20046;-63
2022/04/13 06:42:37;;;;;;;6.88;4.05;;;4.40;99.90;;;;;;4969288;28;20133;-64
2022/04/13 06:45:11;;;;;;;8.73;3.83;;;4.40;99.90;;;;;;4979154;28;20134;-65
2022/04/13 06:47:38;;;;;;;6.47;4.32;;;4.40;99.90;;;;;;4976298;28;20087;-63
2022/04/13 06:50:07;;;;;;;8.10;3.55;;;4.50;99.90;;;;;;4972953;28;20042;-63
2022/04/13 06:52:35;;;;;;;8.32;2.92;;;4.60;99.90;;;;;;4975564;28;20503;-63
2022/04/13 06:55:03;;;;;;;5.63;2.47;;;4.60;99.90;;;;;;4972968;28;20137;-62
2022/04/13 06:57:35;;;;;;;7.75;3.53;;;4.70;99.90;;;;;;4976778;28;20088;-62
2022/04/13 07:00:07;;;;;;;8.98;3.30;;;4.70;99.90;;;;;;4981633;28;20092;-62
2022/04/13 07:02:35;;;;;;;4.35;3.30;;;4.80;99.90;;;;;;4981978;28;20062;-64
2022/04/13 07:05:22;;;;;;;8.18;3.67;;;4.80;99.90;;;;;;4977733;28;20037;-62
2022/04/13 07:07:49;;;;;;;5.75;2.22;;;4.90;99.90;;;;;;4972818;28;20624;-62
2022/04/13 07:10:16;;;;;;;5.32;2.38;;;4.90;99.90;;;;;;4976219;28;20042;-65
2022/04/13 07:12:44;;;;;;;7.15;2.38;;;4.90;99.90;;;;;;4981400;28;20074;-63
2022/04/13 07:15:11;;;;;;;4.90;2.38;;;5.00;99.90;;;;;;4981970;28;20449;-63
2022/04/13 07:17:38;;;;;;;8.90;2.83;;;5.00;99.90;;;;;;4982253;28;20133;-65
2022/04/13 07:20:05;;;;;;;15.10;3.75;;;5.00;99.90;;;;;;4977031;28;20101;-63
2022/04/13 07:22:32;;;;;;;5.65;2.90;;;5.00;99.90;;;;;;4980447;28;20054;-63
2022/04/13 07:24:59;;;;;;;7.05;3.33;;;5.10;99.90;;;;;;4985100;28;20050;-64
2022/04/13 07:27:26;;;;;;;3.97;3.03;;;5.10;99.90;;;;;;4977356;28;20137;-62
2022/04/13 07:29:52;;;;;;;8.55;2.88;;;5.10;99.90;;;;;;4976028;28;20767;-63
2022/04/13 07:32:19;;;;;;;7.40;2.78;;;5.20;99.90;;;;;;4984457;28;20161;-64
2022/04/13 07:34:46;;;;;;;8.82;3.45;;;5.20;99.90;;;;;;4980148;28;20930;-63
2022/04/13 07:37:13;;;;;;;6.93;4.28;;;5.20;99.90;;;;;;4972089;28;20105;-63
2022/04/13 07:39:40;;;;;;;8.73;3.88;;;5.30;99.90;;;;;;4978652;28;20109;-65
2022/04/13 07:42:07;;;;;;;8.90;5.07;;;5.30;99.90;;;;;;4984020;28;20940;-63
2022/04/13 07:44:34;;;;;;;8.27;4.07;;;5.30;99.90;;;;;;4982678;28;20113;-63
2022/04/13 07:47:21;;;;;;;14.32;4.80;;;5.40;99.90;;;;;;4968137;28;20054;-63
2022/04/13 07:49:48;;;;;;;10.70;5.07;;;5.50;99.90;;;;;;4975579;28;20129;-63
2022/04/13 07:52:16;;;;;;;10.88;4.93;;;5.50;99.90;;;;;;4983979;28;20129;-62
2022/04/13 07:54:44;;;;;;;7.47;4.28;;;5.60;99.90;;;;;;4974940;28;20495;-63
2022/04/13 07:57:12;;;;;;;6.72;4.40;;;5.60;99.90;;;;;;4978924;28;20355;-63
2022/04/13 07:59:41;;;;;;;8.10;5.53;;;5.70;99.90;;;;;;4981018;28;20125;-64
2022/04/13 08:02:08;;;;;;;7.82;4.82;;;5.70;99.90;;;;;;4979234;28;20070;-62
2022/04/13 08:04:36;;;;;;;15.55;6.03;;;5.80;99.90;;;;;;4983284;28;20070;-63
2022/04/13 08:07:03;;;;;;;8.55;5.38;;;5.80;99.90;;;;;;4984377;28;20068;-65
2022/04/13 08:09:30;;;;;;;11.43;5.85;;;5.90;99.90;;;;;;4975888;28;20718;-63
2022/04/13 08:11:57;;;;;;;14.02;6.75;;;5.90;99.90;;;;;;4985102;28;20050;-62
2022/04/13 08:14:24;;;;;;;6.43;5.07;;;6.00;99.90;;;;;;4973905;28;20386;-65
2022/04/13 08:16:51;;;;;;;15.65;5.90;;;6.00;99.90;;;;;;4986139;28;20054;-62
2022/04/13 08:19:19;;;;;;;12.77;6.30;;;6.00;99.90;;;;;;5015662;28;20050;-66
2022/04/13 08:21:46;;;;;;;7.93;5.53;;;6.10;99.90;;;;;;4986896;28;20346;-63
2022/04/13 08:24:13;;;;;;;7.70;5.13;;;6.10;99.90;;;;;;4987519;28;20140;-64
2022/04/13 08:26:40;;;;;;;6.15;4.70;;;6.10;99.90;;;;;;4985426;28;20047;-64
2022/04/13 08:29:07;;;;;;;10.35;6.55;;;6.20;99.90;;;;;;4986103;28;20133;-64
2022/04/13 08:31:34;;;;;;;10.25;5.50;;;6.30;99.90;;;;;;4987904;28;20133;-63
2022/04/13 08:34:01;;;;;;;12.32;5.60;;;6.40;99.90;;;;;;4975503;28;20085;-63
2022/04/13 08:36:28;;;;;;;11.73;6.72;;;6.50;99.90;;;;;;4981257;28;20799;-64
2022/04/13 08:38:55;;;;;;;17.40;5.93;;;6.50;99.90;;;;;;4984381;28;20038;-63
2022/04/13 08:41:34;;;;;;;21.17;5.35;;;6.70;99.90;;;;;;4981540;28;20174;-63
2022/04/13 08:44:11;;;;;;;12.45;5.75;;;6.80;99.90;;;;;;4979930;28;20137;-62
2022/04/13 08:46:40;;;;;;;10.70;4.38;;;6.90;99.90;;;;;;4975828;28;20500;-64
2022/04/13 08:49:09;;;;;;;9.95;4.10;;;6.90;99.90;;;;;;4968691;28;20106;-63
2022/04/13 08:52:02;;;;;;;12.25;4.10;;;6.90;99.90;;;;;;4978137;28;20047;-63
2022/04/13 08:54:34;;;;;;;13.45;4.70;;;7.00;99.90;;;;;;4985586;28;20053;-63
2022/04/13 08:57:04;;;;;;;7.60;4.25;;;7.10;99.90;;;;;;4981333;28;20047;-62
2022/04/13 08:59:49;;;;;;;4.53;3.92;;;7.10;99.90;;;;;;4981106;28;20050;-62
2022/04/13 09:02:40;;;;;;;8.43;3.17;;;7.30;99.90;;;;;;4986132;28;20084;-62
2022/04/13 09:05:14;;;;;;;4.45;3.22;;;7.60;99.90;;;;;;4975146;28;20133;-62
2022/04/13 09:07:42;;;;;;;8.80;3.75;;;7.70;99.90;;;;;;4977096;28;20746;-62
2022/04/13 09:10:16;;;;;;;13.80;3.88;;;7.90;99.90;;;;;;4966890;28;20109;-67
2022/04/13 09:12:44;;;;;;;10.02;3.58;;;8.10;99.90;;;;;;4980326;28;20608;-62
2022/04/13 09:15:13;;;;;;;5.97;3.20;;;8.30;99.90;;;;;;4978406;28;20045;-62
2022/04/13 09:17:41;;;;;;;7.20;3.03;;;8.50;99.90;;;;;;4977650;28;20046;-64
2022/04/13 09:20:09;;;;;;;5.15;2.35;;;8.70;99.90;;;;;;4977394;28;20101;-63
2022/04/13 09:22:38;;;;;;;6.78;2.42;;;9.00;99.90;;;;;;4986257;28;20120;-62
2022/04/13 09:25:07;;;;;;;9.30;1.83;;;9.10;99.90;;;;;;4979796;28;20046;-62
2022/04/13 09:27:36;;;;;;;2.55;2.05;;;9.00;99.90;;;;;;4985029;28;20129;-64
2022/04/13 09:30:05;;;;;;;8.13;2.53;;;9.00;99.90;;;;;;4972903;28;20133;-63
2022/04/13 09:32:32;;;;;;;6.53;1.65;;;9.10;99.90;;;;;;4981877;28;20042;-63
2022/04/13 09:35:00;;;;;;;2.85;1.35;;;9.10;99.90;;;;;;4978308;28;20086;-63
2022/04/13 09:37:28;;;;;;;8.45;2.10;;;9.30;99.90;;;;;;4977724;28;20042;-66
2022/04/13 09:39:55;;;;;;;4.05;1.60;;;9.50;99.90;;;;;;4977064;28;20157;-62
2022/04/13 09:42:26;;;;;;;5.32;1.77;;;9.70;99.90;;;;;;4974322;28;20054;-62
2022/04/13 09:44:56;;;;;;;6.28;3.10;;;9.70;99.90;;;;;;4983253;28;20453;-63
2022/04/13 09:47:30;;;;;;;6.50;1.50;;;10.00;99.90;;;;;;4984528;28;20113;-63
2022/04/13 09:49:57;;;;;;;2.05;0.93;;;10.10;99.90;;;;;;4986195;28;20050;-62
2022/04/13 09:52:39;;;;;;;4.25;2.33;;;10.20;99.90;;;;;;4984100;28;20046;-63
2022/04/13 09:55:08;;;;;;;5.68;1.80;;;10.40;99.90;;;;;;4984526;28;20038;-62
2022/04/13 09:57:35;;;;;;;6.47;1.55;;;10.50;99.90;;;;;;4978524;28;20073;-62
2022/04/13 10:00:06;;;;;;;3.63;1.17;;;10.70;99.90;;;;;;4981527;28;20152;-63
2022/04/13 10:02:42;;;;;;;3.50;1.42;;;10.80;99.90;;;;;;4983169;28;20594;-64
2022/04/13 10:05:16;;;;;;;2.38;0.98;;;11.00;99.90;;;;;;4985723;28;20146;-64
2022/04/13 10:07:43;;;;;;;4.85;1.65;;;11.10;99.90;;;;;;4975544;28;20046;-66
2022/04/13 10:10:24;;;;;;;3.83;1.38;;;11.20;99.90;;;;;;4966335;28;20361;-63
2022/04/13 10:12:53;;;;;;;2.25;0.60;;;11.40;99.90;;;;;;4967833;28;20939;-62
2022/04/13 10:15:21;;;;;;;5.13;1.20;;;11.40;99.90;;;;;;4975748;28;20892;-63
2022/04/13 10:17:48;;;;;;;3.72;1.38;;;11.50;99.90;;;;;;4982092;28;20074;-63
2022/04/13 10:20:15;;;;;;;2.17;1.00;;;11.60;99.90;;;;;;4985396;28;20144;-63
2022/04/13 10:22:59;;;;;;;4.00;2.03;;;11.60;99.90;;;;;;4982836;28;20050;-63
2022/04/13 10:25:27;;;;;;;2.70;1.17;;;11.60;99.90;;;;;;4985469;28;20449;-62
2022/04/13 10:27:54;;;;;;;1.38;0.70;;;11.70;99.90;;;;;;4984448;28;20063;-66
2022/04/13 10:30:37;;;;;;;2.75;1.38;;;11.90;99.90;;;;;;4971411;28;20663;-63
2022/04/13 10:33:12;;;;;;;3.85;0.75;;;12.10;99.90;;;;;;4982851;28;20093;-63
2022/04/13 10:35:42;;;;;;;3.95;0.70;;;12.30;99.60;;;;;;4979285;28;20111;-63
2022/04/13 10:38:09;;;;;;;;;;;12.20;97.50;;;;;;4984289;28;20139;-63
2022/04/13 10:40:40;;;;;;;2.47;1.15;;;12.30;95.80;;;;;;4993898;28;20693;-63
2022/04/13 10:43:09;;;;;;;2.55;0.60;;;12.30;96.60;;;;;;4971397;28;20062;-63
2022/04/13 10:45:39;;;;;;;4.38;0.82;;;12.60;97.30;;;;;;4966161;28;20050;-62
2022/04/13 10:48:10;;;;;;;3.87;0.73;;;12.70;96.80;;;;;;4972347;28;20128;-63
2022/04/13 10:50:59;;;;;;;2.60;1.63;;;12.70;95.20;;;;;;4978837;28;20280;-64
2022/04/13 10:54:00;;;;;;;3.35;0.80;;;12.70;95.30;;;;;;4980500;28;20045;-65
2022/04/13 10:56:30;;;;;;;;;;;12.70;90.80;;;;;;4983654;28;20042;-63
2022/04/13 10:58:58;;;;;;;3.28;0.75;;;12.60;88.40;;;;;;4976679;28;20123;-63
2022/04/13 11:01:30;;;;;;;1.25;0.50;;;12.60;89.80;;;;;;4974799;28;20043;-64
2022/04/13 11:03:58;;;;;;;1.48;0.57;;;12.60;87.10;;;;;;4983560;28;20062;-63
2022/04/13 11:06:25;;;;;;;1.73;0.60;;;12.50;86.30;;;;;;4984839;28;20057;-65
2022/04/13 11:09:16;;;;;;;2.03;0.90;;;12.50;88.80;;;;;;4977580;28;20444;-66
2022/04/13 11:11:44;;;;;;;1.02;0.75;;;12.40;91.20;;;;;;4983532;28;20099;-65
2022/04/13 11:14:22;;;;;;;2.42;0.85;;;12.60;90.40;;;;;;4981390;28;20056;-66
2022/04/13 11:17:13;;;;;;;2.03;0.73;;;12.60;90.40;;;;;;4981134;28;20051;-63
2022/04/13 11:19:41;;;;;;;0.68;0.35;;;12.50;89.90;;;;;;4981314;28;20074;-63
2022/04/13 11:22:10;;;;;;;2.20;0.70;;;12.80;91.50;;;;;;4981467;28;20460;-63
2022/04/13 11:24:38;;;;;;;2.90;0.70;;;12.90;91.60;;;;;;4981795;28;20049;-66
2022/04/13 11:27:08;;;;;;;6.55;0.88;;;13.10;90.20;;;;;;4983761;28;20146;-65
2022/04/13 11:29:43;;;;;;;2.92;0.40;;;13.40;89.40;;;;;;4971646;28;20047;-64
2022/04/13 11:32:14;;;;;;;8.70;2.25;;;13.30;87.50;;;;;;4980469;28;20039;-64
2022/04/13 11:34:50;;;;;;;1.17;0.38;;;13.20;86.00;;;;;;4972686;28;20117;-64
2022/04/13 11:37:18;;;;;;;2.13;0.63;;;13.10;85.60;;;;;;4976183;28;20050;-64
2022/04/13 11:39:57;;;;;;;6.03;0.88;;;12.90;86.30;;;;;;4973762;28;20054;-64
2022/04/13 11:42:27;;;;;;;3.83;2.00;;;12.70;89.00;;;;;;4970791;28;20070;-63
2022/04/13 11:45:07;;;;;;;5.97;1.42;;;12.30;95.60;;;;;;4974439;28;20137;-64
2022/04/13 11:47:39;;;;;;;2.65;1.00;;;11.70;99.00;;;;;;4971064;28;20441;-63
2022/04/13 11:50:15;;;;;;;6.43;3.03;;;11.40;94.70;;;;;;4976868;28;20050;-63
2022/04/13 11:53:14;;;;;;;0.82;0.50;;;11.40;94.30;;;;;;4982396;28;20149;-65
2022/04/13 11:55:40;;;;;;;1.80;0.85;;;11.30;90.10;;;;;;4976321;28;20043;-66
2022/04/13 11:58:07;;;;;;;1.23;0.70;;;11.40;90.60;;;;;;4973184;28;20078;-63
2022/04/13 12:00:52;;;;;;;2.47;0.55;;;11.40;91.70;;;;;;4972985;28;20046;-64
2022/04/13 12:03:28;;;;;;;5.72;0.80;;;11.40;92.40;;;;;;4984067;28;20034;-64
2022/04/13 12:06:03;;;;;;;5.93;1.52;;;11.30;92.50;;;;;;4970997;28;20834;-63
2022/04/13 12:08:41;;;;;;;4.05;1.70;;;11.30;91.50;;;;;;4954726;28;20060;-66
2022/04/13 12:11:17;;;;;;;0.68;0.50;;;11.10;90.10;;;;;;4958888;28;20860;-63
2022/04/13 12:13:53;;;;;;;2.13;0.50;;;10.90;88.50;;;;;;4976413;28;20185;-63
2022/04/13 12:16:21;;;;;;;7.70;0.80;;;10.80;90.40;;;;;;4970050;28;20042;-63
2022/04/13 12:18:49;;;;;;;1.58;0.63;;;10.90;91.30;;;;;;4975124;28;20064;-64
2022/04/13 12:21:17;;;;;;;2.53;0.60;;;10.80;91.10;;;;;;4981816;28;20443;-63
2022/04/13 12:23:44;;;;;;;2.17;0.57;;;10.80;91.30;;;;;;4971612;28;20074;-63
2022/04/13 12:26:12;;;;;;;10.07;1.00;;;10.70;92.40;;;;;;4982317;28;20066;-63
2022/04/13 12:28:38;;;;;;;1.63;0.45;;;10.60;91.20;;;;;;4978313;28;20046;-65
2022/04/13 12:31:08;;;;;;;3.65;0.32;;;10.50;92.00;;;;;;4973117;28;20153;-64
2022/04/13 12:33:38;;;;;;;4.10;0.52;;;10.50;91.40;;;;;;4981318;28;20046;-63
2022/04/13 12:36:07;;;;;;;0.98;0.57;;;10.50;90.80;;;;;;4975148;28;20129;-63
2022/04/13 12:38:54;;;;;;;2.97;0.50;;;10.50;91.10;;;;;;4981564;28;20129;-63
2022/04/13 12:41:28;;;;;;;1.58;0.93;;;10.40;91.20;;;;;;4975364;28;20049;-63
2022/04/13 12:43:57;;;;;;;4.90;1.42;;;10.30;91.90;;;;;;4971938;28;20042;-63
2022/04/13 12:46:26;;;;;;;4.47;1.35;;;10.30;91.90;;;;;;4983634;28;20058;-63
2022/04/13 12:48:59;;;;;;;3.63;0.93;;;10.40;92.80;;;;;;4978195;28;20770;-64
2022/04/13 12:51:34;;;;;;;4.43;0.68;;;10.40;93.30;;;;;;4979736;28;20101;-64
2022/04/13 12:54:06;;;;;;;4.70;1.10;;;10.50;93.40;;;;;;4984651;28;20050;-65
2022/04/13 12:56:38;;;;;;;3.42;1.10;;;10.50;93.00;;;;;;4984351;28;20152;-64
2022/04/13 12:59:06;;;;;;;0.77;0.55;;;10.30;91.10;;;;;;4983182;28;20164;-64
2022/04/13 13:01:37;;;;;;;2.80;0.70;;;10.30;92.20;;;;;;4983257;28;20052;-64
2022/04/13 13:04:08;;;;;;;8.95;0.82;;;10.40;92.10;;;;;;4984594;28;20044;-63